createdAt,value
2023-11-07T00:01:35.926Z,97136.00
2023-11-07T00:04:05.985Z,97134.00
2023-11-07T00:06:34.532Z,97143.00
2023-11-07T00:09:03.206Z,97139.00
2023-11-07T00:11:31.654Z,97143.00
2023-11-07T00:13:59.781Z,97141.00
2023-11-07T00:16:28.958Z,97152.00
2023-11-07T00:18:57.707Z,97146.00
2023-11-07T00:21:27.417Z,97155.00
2023-11-07T00:23:55.927Z,97139.00
2023-11-07T00:26:24.110Z,97162.00
2023-11-07T00:28:53.126Z,97155.00
2023-11-07T00:31:21.338Z,97168.00
2023-11-07T00:33:50.133Z,97157.00
2023-11-07T00:36:19.208Z,97159.00
2023-11-07T00:38:48.828Z,97152.00
2023-11-07T00:41:17.093Z,97157.00
2023-11-07T00:43:45.318Z,97153.00
2023-11-07T00:46:13.505Z,97157.00
2023-11-07T00:48:41.850Z,97170.00
2023-11-07T00:51:10.243Z,97154.00
2023-11-07T00:53:38.655Z,97161.00
2023-11-07T00:56:10.128Z,97154.00
2023-11-07T00:58:38.435Z,97150.00
2023-11-07T01:01:07.968Z,97156.00
2023-11-07T01:03:36.436Z,97149.00
2023-11-07T01:06:06.478Z,97165.00
2023-11-07T01:08:35.223Z,97159.00
2023-11-07T01:11:04.313Z,97169.00
2023-11-07T01:13:34.566Z,97174.00
2023-11-07T01:16:03.836Z,97170.00
2023-11-07T01:18:32.714Z,97175.00
2023-11-07T01:21:01.090Z,97179.00
2023-11-07T01:23:29.513Z,97175.00
2023-11-07T01:25:57.655Z,97160.00
2023-11-07T01:28:26.604Z,97179.00
2023-11-07T01:30:56.240Z,97171.00
2023-11-07T01:33:24.506Z,97176.00
2023-11-07T01:35:52.797Z,97182.00
2023-11-07T01:38:21.663Z,97179.00
2023-11-07T01:40:49.949Z,97171.00
2023-11-07T01:43:18.447Z,97182.00
2023-11-07T01:45:46.665Z,97180.00
2023-11-07T01:48:25.968Z,97175.00
2023-11-07T01:50:54.708Z,97180.00
2023-11-07T01:53:23.620Z,97183.00
2023-11-07T01:55:53.012Z,97171.00
2023-11-07T01:58:23.227Z,97167.00
2023-11-07T02:00:54.814Z,97173.00
2023-11-07T02:03:26.639Z,97177.00
2023-11-07T02:05:55.059Z,97164.00
2023-11-07T02:08:25.011Z,97170.00
2023-11-07T02:10:53.798Z,97174.00
2023-11-07T02:13:21.958Z,97186.00
2023-11-07T02:15:50.229Z,97182.00
2023-11-07T02:18:18.537Z,97181.00
2023-11-07T02:20:49.301Z,97175.00
2023-11-07T02:23:36.585Z,97183.00
2023-11-07T02:26:05.561Z,97177.00
2023-11-07T02:28:34.306Z,97183.00
2023-11-07T02:31:02.488Z,97179.00
2023-11-07T02:33:31.151Z,97187.00
2023-11-07T02:36:00.095Z,97177.00
2023-11-07T02:38:29.995Z,97172.00
2023-11-07T02:40:59.867Z,97172.00
2023-11-07T02:43:28.090Z,97170.00
2023-11-07T02:45:56.263Z,97172.00
2023-11-07T02:48:24.510Z,97172.00
2023-11-07T02:50:52.769Z,97173.00
2023-11-07T02:53:20.934Z,97156.00
2023-11-07T02:55:49.195Z,97168.00
2023-11-07T02:58:18.769Z,97168.00
2023-11-07T03:00:46.972Z,97170.00
2023-11-07T03:03:16.584Z,97177.00
2023-11-07T03:05:45.113Z,97168.00
2023-11-07T03:08:14.132Z,97166.00
2023-11-07T03:10:44.184Z,97168.00
2023-11-07T03:13:13.594Z,97169.00
2023-11-07T03:15:45.172Z,97173.00
2023-11-07T03:18:13.853Z,97173.00
2023-11-07T03:20:43.313Z,97166.00
2023-11-07T03:23:11.677Z,97166.00
2023-11-07T03:25:40.101Z,97166.00
2023-11-07T03:28:10.315Z,97164.00
2023-11-07T03:30:38.572Z,97162.00
2023-11-07T03:33:08.309Z,97163.00
2023-11-07T03:35:37.067Z,97177.00
2023-11-07T03:38:05.449Z,97165.00
2023-11-07T03:40:33.869Z,97172.00
2023-11-07T03:43:02.080Z,97172.00
2023-11-07T03:45:30.976Z,97167.00
2023-11-07T03:47:59.243Z,97160.00
2023-11-07T03:50:29.624Z,97181.00
2023-11-07T03:52:57.917Z,97173.00
2023-11-07T03:55:26.106Z,97182.00
2023-11-07T03:57:54.374Z,97182.00
2023-11-07T04:00:23.627Z,97183.00
2023-11-07T04:02:52.324Z,97187.00
2023-11-07T04:05:21.553Z,97182.00
2023-11-07T04:07:51.370Z,97181.00
2023-11-07T04:10:19.700Z,97184.00
2023-11-07T04:12:48.043Z,97187.00
2023-11-07T04:15:16.415Z,97186.00
2023-11-07T04:17:48.209Z,97196.00
2023-11-07T04:20:17.536Z,97185.00
2023-11-07T04:22:48.128Z,97182.00
2023-11-07T04:25:20.387Z,97194.00
2023-11-07T04:27:48.832Z,97195.00
2023-11-07T04:30:18.635Z,97177.00
2023-11-07T04:32:47.209Z,97177.00
2023-11-07T04:35:16.427Z,97185.00
2023-11-07T04:37:44.646Z,97185.00
2023-11-07T04:40:14.098Z,97181.00
2023-11-07T04:42:43.665Z,97183.00
2023-11-07T04:45:13.041Z,97186.00
2023-11-07T04:47:41.650Z,97183.00
2023-11-07T04:50:13.422Z,97181.00
2023-11-07T04:52:41.657Z,97186.00
2023-11-07T04:55:10.531Z,97188.00
2023-11-07T04:57:38.695Z,97200.00
2023-11-07T05:00:11.930Z,97186.00
2023-11-07T05:02:41.014Z,97201.00
2023-11-07T05:05:10.209Z,97190.00
2023-11-07T05:07:38.537Z,97192.00
2023-11-07T05:10:10.883Z,97193.00
2023-11-07T05:12:39.436Z,97205.00
2023-11-07T05:15:11.098Z,97200.00
2023-11-07T05:17:39.538Z,97197.00
2023-11-07T05:20:11.612Z,97198.00
2023-11-07T05:22:39.925Z,97198.00
2023-11-07T05:25:09.799Z,97202.00
2023-11-07T05:27:38.030Z,97198.00
2023-11-07T05:30:09.567Z,97192.00
2023-11-07T05:32:37.936Z,97201.00
2023-11-07T05:35:07.739Z,97213.00
2023-11-07T05:37:36.069Z,97201.00
2023-11-07T05:40:06.004Z,97208.00
2023-11-07T05:42:34.549Z,97200.00
2023-11-07T05:45:04.278Z,97213.00
2023-11-07T05:47:34.083Z,97211.00
2023-11-07T05:50:02.261Z,97214.00
2023-11-07T05:52:30.461Z,97202.00
2023-11-07T05:54:58.676Z,97209.00
2023-11-07T05:57:26.966Z,97206.00
2023-11-07T05:59:55.258Z,97212.00
2023-11-07T06:02:25.763Z,97210.00
2023-11-07T06:04:56.832Z,97215.00
2023-11-07T06:07:25.390Z,97210.00
2023-11-07T06:09:53.783Z,97214.00
2023-11-07T06:12:21.978Z,97224.00
2023-11-07T06:14:50.281Z,97215.00
2023-11-07T06:17:18.783Z,97206.00
2023-11-07T06:19:48.337Z,97213.00
2023-11-07T06:22:18.021Z,97213.00
2023-11-07T06:24:47.220Z,97205.00
2023-11-07T06:27:15.530Z,97210.00
2023-11-07T06:29:44.982Z,97218.00
2023-11-07T06:32:14.679Z,97223.00
2023-11-07T06:34:43.275Z,97236.00
2023-11-07T06:37:12.034Z,97243.00
2023-11-07T06:39:41.558Z,97236.00
2023-11-07T06:42:09.858Z,97234.00
2023-11-07T06:44:38.144Z,97226.00
2023-11-07T06:47:06.669Z,97243.00
2023-11-07T06:49:35.270Z,97249.00
2023-11-07T06:52:03.514Z,97246.00
2023-11-07T06:54:32.932Z,97234.00
2023-11-07T06:57:02.538Z,97232.00
2023-11-07T06:59:32.810Z,97232.00
2023-11-07T07:02:01.409Z,97245.00
2023-11-07T07:04:31.483Z,97238.00
2023-11-07T07:06:59.748Z,97235.00
2023-11-07T07:09:28.198Z,97234.00
2023-11-07T07:11:56.755Z,97247.00
2023-11-07T07:14:26.271Z,97242.00
2023-11-07T07:16:54.493Z,97231.00
2023-11-07T07:19:25.418Z,97239.00
2023-11-07T07:21:55.220Z,97238.00
2023-11-07T07:24:28.547Z,97243.00
2023-11-07T07:26:59.985Z,97243.00
2023-11-07T07:29:30.321Z,97247.00
2023-11-07T07:32:00.643Z,97231.00
2023-11-07T07:34:29.358Z,97241.00
2023-11-07T07:36:57.766Z,97247.00
2023-11-07T07:39:31.546Z,97234.00
2023-11-07T07:42:10.040Z,97254.00
2023-11-07T07:44:40.843Z,97242.00
2023-11-07T07:47:09.643Z,97254.00
2023-11-07T07:49:38.459Z,97246.00
2023-11-07T07:52:11.213Z,97241.00
2023-11-07T07:57:12.192Z,97247.00
2023-11-07T07:59:43.491Z,97245.00
2023-11-07T08:02:12.410Z,97243.00
2023-11-07T08:04:40.927Z,97239.00
2023-11-07T08:07:09.305Z,97239.00
2023-11-07T08:09:42.033Z,97259.00
2023-11-07T08:12:11.337Z,97257.00
2023-11-07T08:14:42.187Z,97247.00
2023-11-07T08:17:11.142Z,97247.00
2023-11-07T08:19:39.380Z,97267.00
2023-11-07T08:22:09.136Z,97265.00
2023-11-07T08:24:37.879Z,97270.00
2023-11-07T08:27:06.376Z,97282.00
2023-11-07T08:29:34.774Z,97258.00
2023-11-07T08:32:05.444Z,97253.00
2023-11-07T08:34:34.794Z,97255.00
2023-11-07T08:37:09.201Z,97260.00
2023-11-07T08:39:41.914Z,97259.00
2023-11-07T08:42:11.703Z,97256.00
2023-11-07T08:44:41.360Z,97241.00
2023-11-07T08:47:11.286Z,97249.00
2023-11-07T08:49:39.842Z,97243.00
2023-11-07T08:52:08.081Z,97255.00
2023-11-07T08:54:37.824Z,97267.00
2023-11-07T08:57:06.972Z,97261.00
2023-11-07T08:59:37.528Z,97256.00
2023-11-07T09:02:06.408Z,97253.00
2023-11-07T09:04:36.025Z,97258.00
2023-11-07T09:07:04.816Z,97264.00
2023-11-07T09:09:33.065Z,97257.00
2023-11-07T09:12:01.387Z,97263.00
2023-11-07T09:14:30.470Z,97263.00
2023-11-07T09:16:58.713Z,97262.00
2023-11-07T09:19:27.409Z,97267.00
2023-11-07T09:21:56.932Z,97260.00
2023-11-07T09:24:25.349Z,97275.00
2023-11-07T09:26:54.380Z,97273.00
2023-11-07T09:29:22.912Z,97270.00
2023-11-07T09:31:53.304Z,97264.00
2023-11-07T09:34:23.014Z,97264.00
2023-11-07T09:36:51.288Z,97267.00
2023-11-07T09:39:22.706Z,97254.00
2023-11-07T09:41:51.006Z,97274.00
2023-11-07T09:44:19.992Z,97268.00
2023-11-07T09:46:50.535Z,97258.00
2023-11-07T09:49:20.901Z,97249.00
2023-11-07T09:51:53.017Z,97249.00
2023-11-07T09:54:28.668Z,97262.00
2023-11-07T09:57:00.196Z,97262.00
2023-11-07T09:59:37.153Z,97254.00
2023-11-07T10:02:10.675Z,97261.00
2023-11-07T10:04:43.569Z,97252.00
2023-11-07T10:07:12.097Z,97261.00
2023-11-07T10:09:41.720Z,97241.00
2023-11-07T10:12:17.311Z,97259.00
2023-11-07T10:14:46.967Z,97243.00
2023-11-07T10:17:22.988Z,97254.00
2023-11-07T10:20:07.275Z,97243.00
2023-11-07T10:22:45.586Z,97248.00
2023-11-07T10:25:32.982Z,97242.00
2023-11-07T10:28:03.754Z,97234.00
2023-11-07T10:30:41.292Z,97241.00
2023-11-07T10:33:10.406Z,97234.00
2023-11-07T10:35:55.198Z,97233.00
2023-11-07T10:38:24.309Z,97234.00
2023-11-07T10:40:54.604Z,97234.00
2023-11-07T10:43:36.423Z,97225.00
2023-11-07T10:46:06.747Z,97226.00
2023-11-07T10:48:39.144Z,97223.00
2023-11-07T10:51:10.830Z,97223.00
2023-11-07T10:53:43.809Z,97227.00
2023-11-07T10:56:16.609Z,97210.00
2023-11-07T10:58:54.110Z,97210.00
2023-11-07T11:01:22.434Z,97201.00
2023-11-07T11:03:52.220Z,97206.00
2023-11-07T11:06:25.264Z,97195.00
2023-11-07T11:08:59.021Z,97201.00
2023-11-07T11:11:32.389Z,97208.00
2023-11-07T11:14:01.733Z,97207.00
2023-11-07T11:16:32.809Z,97206.00
2023-11-07T11:19:17.698Z,97204.00
2023-11-07T11:21:57.804Z,97213.00
2023-11-07T11:24:45.168Z,97213.00
2023-11-07T11:27:23.910Z,97219.00
2023-11-07T11:29:52.150Z,97217.00
2023-11-07T11:32:28.991Z,97195.00
2023-11-07T11:35:31.110Z,97195.00
2023-11-07T11:38:14.438Z,97209.00
2023-11-07T11:40:54.336Z,97211.00
2023-11-07T11:43:26.878Z,97206.00
2023-11-07T11:45:59.730Z,97204.00
2023-11-07T11:49:08.600Z,97211.00
2023-11-07T11:51:39.667Z,97207.00
2023-11-07T11:54:09.839Z,97213.00
2023-11-07T11:57:07.290Z,97198.00
2023-11-07T11:59:56.291Z,97197.00
2023-11-07T12:02:38.160Z,97205.00
2023-11-07T12:05:17.138Z,97198.00
2023-11-07T12:07:46.838Z,97200.00
2023-11-07T12:10:22.074Z,97200.00
2023-11-07T12:13:02.442Z,97202.00
2023-11-07T12:15:34.326Z,97207.00
2023-11-07T12:18:04.380Z,97200.00
2023-11-07T12:20:42.078Z,97210.00
2023-11-07T12:23:16.639Z,97199.00
2023-11-07T12:25:51.672Z,97174.00
2023-11-07T12:28:21.788Z,97188.00
2023-11-07T12:30:56.985Z,97186.00
2023-11-07T12:33:25.310Z,97183.00
2023-11-07T12:35:58.714Z,97174.00
2023-11-07T12:38:27.096Z,97183.00
2023-11-07T12:40:55.725Z,97187.00
2023-11-07T12:43:39.336Z,97187.00
2023-11-07T12:46:11.768Z,97184.00
2023-11-07T12:48:40.160Z,97173.00
2023-11-07T12:51:09.726Z,97178.00
2023-11-07T12:53:52.444Z,97175.00
2023-11-07T12:56:22.445Z,97170.00
2023-11-07T12:58:52.161Z,97181.00
2023-11-07T13:01:27.291Z,97182.00
2023-11-07T13:03:55.890Z,97169.00
2023-11-07T13:06:24.275Z,97179.00
2023-11-07T13:08:52.556Z,97174.00
2023-11-07T13:11:24.985Z,97169.00
2023-11-07T13:13:54.562Z,97183.00
2023-11-07T13:16:23.613Z,97159.00
2023-11-07T13:18:58.046Z,97176.00
2023-11-07T13:21:29.099Z,97161.00
2023-11-07T13:23:57.431Z,97169.00
2023-11-07T13:26:25.725Z,97157.00
2023-11-07T13:28:58.234Z,97160.00
2023-11-07T13:31:26.535Z,97164.00
2023-11-07T13:33:54.907Z,97166.00
2023-11-07T13:36:23.378Z,97169.00
2023-11-07T13:38:51.599Z,97160.00
2023-11-07T13:41:20.130Z,97168.00
2023-11-07T13:43:48.463Z,97159.00
2023-11-07T13:46:19.453Z,97174.00
2023-11-07T13:48:51.268Z,97172.00
2023-11-07T13:51:21.398Z,97170.00
2023-11-07T13:53:51.804Z,97177.00
2023-11-07T13:56:20.224Z,97177.00
2023-11-07T13:58:49.220Z,97180.00
2023-11-07T14:01:19.057Z,97190.00
2023-11-07T14:03:47.566Z,97183.00
2023-11-07T14:06:17.550Z,97184.00
2023-11-07T14:08:49.350Z,97203.00
2023-11-07T14:11:18.303Z,97200.00
2023-11-07T14:13:48.881Z,97205.00
2023-11-07T14:16:19.077Z,97223.00
2023-11-07T14:18:49.961Z,97213.00
2023-11-07T14:21:18.511Z,97204.00
2023-11-07T14:23:47.130Z,97213.00
2023-11-07T14:26:16.112Z,97206.00
2023-11-07T14:28:55.213Z,97214.00
2023-11-07T14:31:31.630Z,97214.00
2023-11-07T14:34:00.435Z,97222.00
2023-11-07T14:36:29.493Z,97211.00
2023-11-07T14:39:04.865Z,97210.00
2023-11-07T14:41:37.270Z,97220.00
2023-11-07T14:44:05.850Z,97219.00
2023-11-07T14:46:36.702Z,97215.00
2023-11-07T14:49:06.406Z,97221.00
2023-11-07T14:51:35.794Z,97209.00
2023-11-07T14:54:05.739Z,97210.00
2023-11-07T14:56:34.037Z,97227.00
2023-11-07T14:59:02.296Z,97223.00
2023-11-07T15:01:30.507Z,97211.00
2023-11-07T15:04:00.526Z,97222.00
2023-11-07T15:06:29.043Z,97226.00
2023-11-07T15:08:57.378Z,97227.00
2023-11-07T15:11:26.902Z,97228.00
2023-11-07T15:13:57.032Z,97226.00
2023-11-07T15:16:25.336Z,97221.00
2023-11-07T15:18:53.868Z,97226.00
2023-11-07T15:21:23.490Z,97226.00
2023-11-07T15:23:52.011Z,97237.00
2023-11-07T15:26:20.404Z,97228.00
2023-11-07T15:28:49.531Z,97223.00
2023-11-07T15:31:17.867Z,97227.00
2023-11-07T15:33:46.397Z,97224.00
2023-11-07T15:36:14.838Z,97230.00
2023-11-07T15:38:45.678Z,97232.00
2023-11-07T15:41:13.871Z,97232.00
2023-11-07T15:43:42.735Z,97225.00
2023-11-07T15:46:12.457Z,97220.00
2023-11-07T15:48:40.899Z,97221.00
2023-11-07T15:51:09.364Z,97229.00
2023-11-07T15:53:37.885Z,97223.00
2023-11-07T15:56:09.231Z,97220.00
2023-11-07T15:58:37.444Z,97225.00
2023-11-07T16:01:06.781Z,97223.00
2023-11-07T16:03:35.078Z,97232.00
2023-11-07T16:06:04.250Z,97228.00
2023-11-07T16:08:35.465Z,97235.00
2023-11-07T16:11:04.375Z,97239.00
2023-11-07T16:13:34.284Z,97235.00
2023-11-07T16:16:03.747Z,97239.00
2023-11-07T16:18:32.318Z,97240.00
2023-11-07T16:21:01.404Z,97222.00
2023-11-07T16:23:29.771Z,97248.00
2023-11-07T16:26:01.209Z,97243.00
2023-11-07T16:28:30.025Z,97249.00
2023-11-07T16:30:59.661Z,97244.00
2023-11-07T16:33:27.934Z,97241.00
2023-11-07T16:35:56.265Z,97242.00
2023-11-07T16:38:25.856Z,97249.00
2023-11-07T16:40:54.105Z,97268.00
2023-11-07T16:43:22.453Z,97261.00
2023-11-07T16:45:50.757Z,97261.00
2023-11-07T16:48:20.471Z,97265.00
2023-11-07T16:50:48.957Z,97270.00
2023-11-07T16:53:17.272Z,97280.00
2023-11-07T16:55:45.750Z,97278.00
2023-11-07T16:58:14.211Z,97282.00
2023-11-07T17:00:42.695Z,97278.00
2023-11-07T17:03:11.167Z,97284.00
2023-11-07T17:05:42.581Z,97281.00
2023-11-07T17:08:13.590Z,97282.00
2023-11-07T17:10:42.331Z,97282.00
2023-11-07T17:13:11.461Z,97290.00
2023-11-07T17:15:42.662Z,97291.00
2023-11-07T17:18:11.604Z,97299.00
2023-11-07T17:20:46.487Z,97298.00
2023-11-07T17:23:15.740Z,97303.00
2023-11-07T17:25:44.863Z,97289.00
2023-11-07T17:28:13.670Z,97302.00
2023-11-07T17:30:41.929Z,97304.00
2023-11-07T17:33:10.486Z,97314.00
2023-11-07T17:35:43.008Z,97307.00
2023-11-07T17:38:11.698Z,97302.00
2023-11-07T17:40:40.708Z,97289.00
2023-11-07T17:43:09.312Z,97305.00
2023-11-07T17:45:37.782Z,97315.00
2023-11-07T17:48:07.428Z,97315.00
2023-11-07T17:50:35.935Z,97313.00
2023-11-07T17:53:08.289Z,97317.00
2023-11-07T17:55:37.014Z,97310.00
2023-11-07T17:58:05.470Z,97313.00
2023-11-07T18:00:34.282Z,97317.00
2023-11-07T18:03:03.752Z,97327.00
2023-11-07T18:05:32.366Z,97329.00
2023-11-07T18:08:02.746Z,97335.00
2023-11-07T18:10:33.732Z,97338.00
2023-11-07T18:13:02.047Z,97341.00
2023-11-07T18:15:30.664Z,97335.00
2023-11-07T18:17:59.539Z,97334.00
2023-11-07T18:20:28.071Z,97337.00
2023-11-07T18:22:56.776Z,97346.00
2023-11-07T18:25:25.145Z,97348.00
2023-11-07T18:27:54.797Z,97351.00
2023-11-07T18:30:23.176Z,97358.00
2023-11-07T18:32:51.669Z,97358.00
2023-11-07T18:35:21.168Z,97365.00
2023-11-07T18:37:49.420Z,97361.00
2023-11-07T18:40:17.783Z,97355.00
2023-11-07T18:42:46.223Z,97354.00
2023-11-07T18:45:16.768Z,97354.00
2023-11-07T18:47:47.462Z,97355.00
2023-11-07T18:50:18.635Z,97350.00
2023-11-07T18:52:47.311Z,97360.00
2023-11-07T18:55:15.786Z,97376.00
2023-11-07T18:57:44.962Z,97376.00
2023-11-07T19:00:18.037Z,97375.00
2023-11-07T19:02:46.491Z,97378.00
2023-11-07T19:05:14.904Z,97371.00
2023-11-07T19:07:43.422Z,97390.00
2023-11-07T19:10:12.997Z,97375.00
2023-11-07T19:12:41.543Z,97379.00
2023-11-07T19:15:13.131Z,97375.00
2023-11-07T19:17:43.383Z,97376.00
2023-11-07T19:20:13.199Z,97393.00
2023-11-07T19:22:41.730Z,97371.00
2023-11-07T19:25:10.770Z,97384.00
2023-11-07T19:27:39.254Z,97381.00
2023-11-07T19:30:12.101Z,97390.00
2023-11-07T19:32:42.600Z,97389.00
2023-11-07T19:35:13.259Z,97385.00
2023-11-07T19:37:41.868Z,97387.00
2023-11-07T19:40:11.086Z,97399.00
2023-11-07T19:42:41.219Z,97393.00
2023-11-07T19:45:10.935Z,97390.00
2023-11-07T19:47:39.271Z,97398.00
2023-11-07T19:50:11.001Z,97397.00
2023-11-07T19:52:39.273Z,97406.00
2023-11-07T19:55:08.656Z,97405.00
2023-11-07T19:57:37.995Z,97398.00
2023-11-07T20:00:09.647Z,97403.00
2023-11-07T20:02:38.072Z,97398.00
2023-11-07T20:05:10.483Z,97409.00
2023-11-07T20:07:46.980Z,97422.00
2023-11-07T20:10:22.660Z,97417.00
2023-11-07T20:12:50.950Z,97413.00
2023-11-07T20:15:19.420Z,97413.00
2023-11-07T20:17:47.843Z,97414.00
2023-11-07T20:20:17.665Z,97414.00
2023-11-07T20:22:46.730Z,97409.00
2023-11-07T20:25:16.800Z,97424.00
2023-11-07T20:27:45.623Z,97409.00
2023-11-07T20:30:16.407Z,97417.00
2023-11-07T20:32:45.039Z,97425.00
2023-11-07T20:35:14.054Z,97428.00
2023-11-07T20:37:45.110Z,97428.00
2023-11-07T20:40:13.818Z,97421.00
2023-11-07T20:42:42.080Z,97432.00
2023-11-07T20:45:13.631Z,97432.00
2023-11-07T20:47:42.723Z,97430.00
2023-11-07T20:50:12.196Z,97425.00
2023-11-07T20:52:40.626Z,97422.00
2023-11-07T20:55:10.657Z,97428.00
2023-11-07T20:57:39.718Z,97427.00
2023-11-07T21:00:11.496Z,97437.00
2023-11-07T21:02:40.079Z,97434.00
2023-11-07T21:05:09.515Z,97429.00
2023-11-07T21:07:39.594Z,97437.00
2023-11-07T21:10:12.051Z,97439.00
2023-11-07T21:12:40.843Z,97434.00
2023-11-07T21:15:11.069Z,97424.00
2023-11-07T21:17:40.469Z,97440.00
2023-11-07T21:20:11.470Z,97434.00
2023-11-07T21:22:40.408Z,97425.00
2023-11-07T21:25:11.980Z,97439.00
2023-11-07T21:27:41.099Z,97441.00
2023-11-07T21:30:12.225Z,97449.00
2023-11-07T21:32:43.110Z,97444.00
2023-11-07T21:35:14.779Z,97438.00
2023-11-07T21:37:43.393Z,97431.00
2023-11-07T21:40:14.151Z,97437.00
2023-11-07T21:42:43.457Z,97444.00
2023-11-07T21:45:12.269Z,97443.00
2023-11-07T21:47:42.911Z,97458.00
2023-11-07T21:50:13.140Z,97452.00
2023-11-07T21:52:41.720Z,97446.00
2023-11-07T21:55:12.380Z,97448.00
2023-11-07T21:57:41.594Z,97444.00
2023-11-07T22:00:15.522Z,97441.00
2023-11-07T22:02:44.519Z,97463.00
2023-11-07T22:05:14.901Z,97450.00
2023-11-07T22:07:43.437Z,97458.00
2023-11-07T22:10:14.954Z,97437.00
2023-11-07T22:12:44.103Z,97461.00
2023-11-07T22:15:13.913Z,97447.00
2023-11-07T22:17:42.789Z,97447.00
2023-11-07T22:20:15.753Z,97466.00
2023-11-07T22:22:44.797Z,97459.00
2023-11-07T22:25:15.348Z,97464.00
2023-11-07T22:27:44.086Z,97463.00
2023-11-07T22:30:13.389Z,97467.00
2023-11-07T22:32:42.663Z,97465.00
2023-11-07T22:35:11.393Z,97472.00
2023-11-07T22:37:39.656Z,97495.00
2023-11-07T22:40:10.731Z,97475.00
2023-11-07T22:42:41.736Z,97488.00
2023-11-07T22:45:12.326Z,97488.00
2023-11-07T22:47:40.914Z,97481.00
2023-11-07T22:50:10.522Z,97478.00
2023-11-07T22:52:39.126Z,97495.00
2023-11-07T22:55:10.102Z,97490.00
2023-11-07T22:57:40.044Z,97496.00
2023-11-07T23:00:12.078Z,97500.00
2023-11-07T23:02:40.776Z,97514.00
2023-11-07T23:05:11.611Z,97504.00
2023-11-07T23:07:40.827Z,97499.00
2023-11-07T23:10:10.891Z,97514.00
2023-11-07T23:12:40.537Z,97512.00
2023-11-07T23:15:12.287Z,97515.00
2023-11-07T23:17:40.942Z,97504.00
2023-11-07T23:20:11.339Z,97502.00
2023-11-07T23:22:40.175Z,97494.00
2023-11-07T23:25:11.481Z,97498.00
2023-11-07T23:27:41.466Z,97503.00
2023-11-07T23:30:11.069Z,97496.00
2023-11-07T23:32:40.593Z,97495.00
2023-11-07T23:35:10.680Z,97499.00
2023-11-07T23:37:39.085Z,97491.00
2023-11-07T23:40:11.769Z,97488.00
2023-11-07T23:42:43.195Z,97480.00
2023-11-07T23:45:12.166Z,97492.00
2023-11-07T23:47:41.195Z,97489.00
2023-11-07T23:50:11.950Z,97485.00
2023-11-07T23:52:40.988Z,97475.00
2023-11-07T23:55:10.375Z,97495.00
2023-11-07T23:57:38.833Z,97475.00
